createdAt,value
2024-01-20T00:01:24.727Z,98907.47
2024-01-20T00:03:53.234Z,98915.94
2024-01-20T00:06:20.747Z,98917.47
2024-01-20T00:08:48.041Z,98930.34
2024-01-20T00:11:15.319Z,98915.53
2024-01-20T00:13:42.576Z,98936.44
2024-01-20T00:16:10.342Z,98909.03
2024-01-20T00:18:40.878Z,98915.81
2024-01-20T00:21:08.175Z,98922.31
2024-01-20T00:23:35.558Z,98927.22
2024-01-20T00:26:02.643Z,98923.16
2024-01-20T00:28:30.248Z,98912.09
2024-01-20T00:30:57.462Z,98912.25
2024-01-20T00:33:24.945Z,98909.81
2024-01-20T00:35:52.246Z,98921.13
2024-01-20T00:38:19.864Z,98909.34
2024-01-20T00:40:47.065Z,98919.31
2024-01-20T00:43:15.062Z,98915.81
2024-01-20T00:45:42.466Z,98919.31
2024-01-20T00:48:10.466Z,98917.75
2024-01-20T00:50:37.910Z,98931.69
2024-01-20T00:53:05.242Z,98898.72
2024-01-20T00:55:32.403Z,98911.88
2024-01-20T00:58:00.020Z,98920.31
2024-01-20T01:00:27.292Z,98911.38
2024-01-20T01:02:55.384Z,98919.53
2024-01-20T01:05:22.666Z,98910.91
2024-01-20T01:07:49.819Z,98931.69
2024-01-20T01:10:17.911Z,98894.69
2024-01-20T01:12:45.302Z,98917.75
2024-01-20T01:15:12.636Z,98902.84
2024-01-20T01:17:39.717Z,98910.69
2024-01-20T01:20:07.670Z,98912.47
2024-01-20T01:22:35.339Z,98917.88
2024-01-20T01:25:03.627Z,98910.19
2024-01-20T01:27:32.847Z,98914.22
2024-01-20T01:30:00.040Z,98920.50
2024-01-20T01:32:27.485Z,98928.94
2024-01-20T01:34:56.064Z,98934.47
2024-01-20T01:37:23.355Z,98907.16
2024-01-20T01:39:50.989Z,98934.34
2024-01-20T01:42:20.301Z,98924.13
2024-01-20T01:44:47.493Z,98891.66
2024-01-20T01:47:15.348Z,98918.03
2024-01-20T01:49:43.857Z,98930.31
2024-01-20T01:52:11.578Z,98914.41
2024-01-20T01:54:39.021Z,98921.38
2024-01-20T01:57:07.312Z,98921.88
2024-01-20T01:59:35.976Z,98939.06
2024-01-20T02:02:03.659Z,98934.84
2024-01-20T02:04:30.894Z,98925.31
2024-01-20T02:06:58.759Z,98927.88
2024-01-20T02:09:26.507Z,98915.41
2024-01-20T02:11:55.163Z,98912.84
2024-01-20T02:14:22.843Z,98908.75
2024-01-20T02:16:50.297Z,98899.91
2024-01-20T02:19:17.540Z,98908.75
2024-01-20T02:21:44.886Z,98919.16
2024-01-20T02:24:13.506Z,98908.34
2024-01-20T02:26:42.080Z,98924.25
2024-01-20T02:29:09.335Z,98934.66
2024-01-20T02:31:39.653Z,98934.66
2024-01-20T02:34:07.156Z,98922.69
2024-01-20T02:36:34.781Z,98920.91
2024-01-20T02:39:01.985Z,98931.13
2024-01-20T02:41:29.404Z,98914.81
2024-01-20T02:43:56.581Z,98917.09
2024-01-20T02:46:23.722Z,98920.44
2024-01-20T02:48:51.483Z,98923.06
2024-01-20T02:51:19.058Z,98919.75
2024-01-20T02:53:46.215Z,98929.16
2024-01-20T02:56:13.864Z,98937.41
2024-01-20T02:58:40.987Z,98938.97
2024-01-20T03:01:08.495Z,98946.25
2024-01-20T03:03:35.784Z,98932.31
2024-01-20T03:06:04.065Z,98936.03
2024-01-20T03:08:31.661Z,98942.22
2024-01-20T03:10:59.079Z,98942.72
2024-01-20T03:13:26.578Z,98949.50
2024-01-20T03:15:54.033Z,98958.91
2024-01-20T03:18:21.330Z,98949.19
2024-01-20T03:20:48.415Z,98954.72
2024-01-20T03:23:15.885Z,98952.94
2024-01-20T03:25:43.435Z,98958.75
2024-01-20T03:28:10.655Z,98965.50
2024-01-20T03:30:37.987Z,98959.41
2024-01-20T03:33:05.499Z,98956.78
2024-01-20T03:35:33.038Z,98971.31
2024-01-20T03:38:01.477Z,98978.50
2024-01-20T03:40:29.896Z,98969.63
2024-01-20T03:42:57.388Z,98977.50
2024-01-20T03:45:25.467Z,98974.56
2024-01-20T03:47:52.707Z,98978.09
2024-01-20T03:50:20.125Z,98959.34
2024-01-20T03:52:47.503Z,98971.53
2024-01-20T03:55:14.516Z,98967.97
2024-01-20T03:57:41.904Z,98981.81
2024-01-20T04:00:10.747Z,98972.19
2024-01-20T04:02:38.605Z,98966.41
2024-01-20T04:05:06.629Z,98967.69
2024-01-20T04:07:34.130Z,98959.03
2024-01-20T04:10:01.487Z,98985.56
2024-01-20T04:12:30.437Z,98989.00
2024-01-20T04:14:58.327Z,98983.19
2024-01-20T04:17:25.719Z,98987.31
2024-01-20T04:19:52.915Z,98975.72
2024-01-20T04:22:21.074Z,98988.13
2024-01-20T04:24:48.543Z,98974.94
2024-01-20T04:27:15.981Z,98996.75
2024-01-20T04:29:43.364Z,98979.47
2024-01-20T04:32:11.318Z,98982.13
2024-01-20T04:34:38.795Z,98992.44
2024-01-20T04:37:06.431Z,98976.31
2024-01-20T04:39:33.969Z,98986.44
2024-01-20T04:42:01.613Z,98997.81
2024-01-20T04:44:28.820Z,99009.13
2024-01-20T04:46:56.088Z,99009.91
2024-01-20T04:49:23.661Z,99006.38
2024-01-20T04:51:52.288Z,98987.91
2024-01-20T04:54:19.489Z,99001.16
2024-01-20T04:56:46.789Z,99008.94
2024-01-20T04:59:14.471Z,99007.94
2024-01-20T05:01:42.694Z,99000.09
2024-01-20T05:04:10.046Z,98991.25
2024-01-20T05:06:37.304Z,99005.22
2024-01-20T05:09:05.926Z,99013.84
2024-01-20T05:11:33.495Z,98997.91
2024-01-20T05:14:00.608Z,99017.97
2024-01-20T05:16:28.079Z,99000.56
2024-01-20T05:18:55.526Z,99024.47
2024-01-20T05:21:23.731Z,99018.16
2024-01-20T05:23:50.959Z,99017.56
2024-01-20T05:26:18.235Z,99018.47
2024-01-20T05:28:45.463Z,99010.91
2024-01-20T05:31:12.764Z,99014.03
2024-01-20T05:33:40.308Z,99014.31
2024-01-20T05:36:08.032Z,99018.78
2024-01-20T05:38:35.338Z,99014.41
2024-01-20T05:41:02.687Z,99018.19
2024-01-20T05:43:30.920Z,99022.50
2024-01-20T05:45:58.532Z,99025.22
2024-01-20T05:48:26.689Z,99035.44
2024-01-20T05:50:53.955Z,99003.44
2024-01-20T05:53:22.230Z,99033.09
2024-01-20T05:55:50.081Z,99030.34
2024-01-20T05:58:17.462Z,99026.03
2024-01-20T06:00:44.873Z,99032.31
2024-01-20T06:03:12.334Z,99028.88
2024-01-20T06:05:39.382Z,99022.88
2024-01-20T06:08:06.972Z,99037.81
2024-01-20T06:10:34.272Z,99031.53
2024-01-20T06:13:01.552Z,99014.84
2024-01-20T06:15:28.935Z,99032.13
2024-01-20T06:17:56.228Z,99036.66
2024-01-20T06:20:23.659Z,99036.06
2024-01-20T06:22:51.096Z,99024.94
2024-01-20T06:25:18.484Z,99046.34
2024-01-20T06:27:47.052Z,99018.56
2024-01-20T06:30:14.469Z,99045.16
2024-01-20T06:32:41.973Z,99055.78
2024-01-20T06:35:09.928Z,99048.41
2024-01-20T06:37:37.549Z,99036.41
2024-01-20T06:40:05.031Z,99055.16
2024-01-20T06:42:32.535Z,99047.38
2024-01-20T06:45:01.310Z,99051.00
2024-01-20T06:47:31.977Z,99042.81
2024-01-20T06:50:00.301Z,99043.28
2024-01-20T06:52:31.198Z,99046.66
2024-01-20T06:54:58.705Z,99063.16
2024-01-20T06:57:26.111Z,99059.91
2024-01-20T06:59:53.400Z,99058.44
2024-01-20T07:02:21.722Z,99063.91
2024-01-20T07:04:48.886Z,99072.66
2024-01-20T07:07:16.367Z,99068.53
2024-01-20T07:09:43.596Z,99059.84
2024-01-20T07:12:10.956Z,99074.81
2024-01-20T07:14:38.202Z,99077.13
2024-01-20T07:17:06.684Z,99076.72
2024-01-20T07:19:34.221Z,99073.44
2024-01-20T07:22:01.541Z,99072.25
2024-01-20T07:24:29.370Z,99058.19
2024-01-20T07:26:57.812Z,99061.09
2024-01-20T07:29:25.489Z,99071.88
2024-01-20T07:31:53.021Z,99071.88
2024-01-20T07:34:20.948Z,99067.56
2024-01-20T07:36:48.317Z,99074.84
2024-01-20T07:39:15.640Z,99054.31
2024-01-20T07:41:42.933Z,99077.47
2024-01-20T07:44:10.207Z,99066.16
2024-01-20T07:46:37.401Z,99066.97
2024-01-20T07:49:04.891Z,99063.69
2024-01-20T07:51:32.741Z,99085.97
2024-01-20T07:53:59.973Z,99072.38
2024-01-20T07:56:28.430Z,99002.19
2024-01-20T07:58:55.695Z,99080.69
2024-01-20T08:01:23.002Z,99080.00
2024-01-20T08:03:50.326Z,99069.91
2024-01-20T08:06:17.627Z,99093.25
2024-01-20T08:08:46.030Z,99074.50
2024-01-20T08:11:13.641Z,99080.16
2024-01-20T08:13:40.953Z,99083.31
2024-01-20T08:16:08.912Z,99069.59
2024-01-20T08:18:36.284Z,99085.69
2024-01-20T08:21:09.453Z,99092.66
2024-01-20T08:23:36.754Z,99084.31
2024-01-20T08:26:07.406Z,99092.19
2024-01-20T08:28:34.625Z,99070.69
2024-01-20T08:31:01.983Z,99077.56
2024-01-20T08:33:29.581Z,99080.69
2024-01-20T08:35:57.098Z,99084.91
2024-01-20T08:38:24.483Z,99089.78
2024-01-20T08:40:51.611Z,99084.91
2024-01-20T08:43:19.512Z,99069.88
2024-01-20T08:45:46.717Z,99057.25
2024-01-20T08:48:14.630Z,99073.06
2024-01-20T08:50:42.261Z,99064.44
2024-01-20T08:53:09.417Z,99069.81
2024-01-20T08:55:37.087Z,99087.97
2024-01-20T08:58:04.580Z,99085.03
2024-01-20T09:00:32.521Z,99095.25
2024-01-20T09:02:59.911Z,99083.66
2024-01-20T09:05:27.366Z,99093.22
2024-01-20T09:08:06.444Z,99091.72
2024-01-20T09:10:34.021Z,99093.56
2024-01-20T09:13:01.049Z,99080.28
2024-01-20T09:15:28.496Z,99071.56
2024-01-20T09:17:56.195Z,99083.41
2024-01-20T09:20:23.423Z,99083.53
2024-01-20T09:22:52.082Z,99085.72
2024-01-20T09:25:19.425Z,99086.66
2024-01-20T09:27:46.698Z,99078.44
2024-01-20T09:30:14.131Z,99098.72
2024-01-20T09:32:42.305Z,99092.88
2024-01-20T09:35:10.094Z,99097.47
2024-01-20T09:37:40.147Z,99095.69
2024-01-20T09:40:07.992Z,99092.59
2024-01-20T09:42:35.626Z,99106.84
2024-01-20T09:45:04.431Z,99096.56
2024-01-20T09:47:31.951Z,99110.09
2024-01-20T09:49:59.381Z,99101.13
2024-01-20T09:52:33.474Z,99105.97
2024-01-20T09:55:26.688Z,99097.97
2024-01-20T09:57:55.051Z,99122.91
2024-01-20T10:00:25.423Z,99123.72
2024-01-20T10:02:52.523Z,99123.78
2024-01-20T10:05:24.874Z,99122.81
2024-01-20T10:07:52.197Z,99138.66
2024-01-20T10:10:21.789Z,99117.63
2024-01-20T10:12:51.709Z,99113.28
2024-01-20T10:15:23.479Z,99105.84
2024-01-20T10:17:50.839Z,99115.09
2024-01-20T10:20:37.455Z,99132.63
2024-01-20T10:23:09.174Z,99115.28
2024-01-20T10:25:37.159Z,99121.75
2024-01-20T10:28:04.726Z,99135.41
2024-01-20T10:30:32.317Z,99126.97
2024-01-20T10:35:31.159Z,99138.38
2024-01-20T10:38:01.604Z,99136.22
2024-01-20T10:40:29.176Z,99140.41
2024-01-20T10:43:05.512Z,99107.31
2024-01-20T10:45:42.860Z,99139.75
2024-01-20T10:48:17.832Z,99138.78
2024-01-20T10:50:49.429Z,99123.94
2024-01-20T10:53:17.720Z,99115.84
2024-01-20T10:55:47.273Z,99140.41
2024-01-20T10:58:18.991Z,99122.19
2024-01-20T11:00:48.183Z,99132.25
2024-01-20T11:03:16.267Z,99149.44
2024-01-20T11:05:48.711Z,99132.72
2024-01-20T11:08:25.633Z,99144.19
2024-01-20T11:10:56.935Z,99142.44
2024-01-20T11:13:27.029Z,99137.72
2024-01-20T11:15:55.127Z,99152.56
2024-01-20T11:18:24.145Z,99151.38
2024-01-20T11:21:04.727Z,99144.97
2024-01-20T11:23:32.251Z,99150.34
2024-01-20T11:26:10.691Z,99164.00
2024-01-20T11:28:38.207Z,99157.09
2024-01-20T11:31:06.488Z,99152.09
2024-01-20T11:33:33.938Z,99154.19
2024-01-20T11:36:01.659Z,99165.41
2024-01-20T11:38:29.253Z,99175.00
2024-01-20T11:41:04.055Z,99170.06
2024-01-20T11:43:33.188Z,99174.66
2024-01-20T11:46:00.550Z,99172.00
2024-01-20T11:48:28.143Z,99165.25
2024-01-20T11:50:56.430Z,99167.50
2024-01-20T11:53:24.104Z,99180.97
2024-01-20T11:55:57.045Z,99182.38
2024-01-20T11:58:24.757Z,99166.69
2024-01-20T12:00:53.591Z,99178.16
2024-01-20T12:03:22.255Z,99178.56
2024-01-20T12:05:50.317Z,99194.94
2024-01-20T12:08:18.041Z,99187.97
2024-01-20T12:10:48.803Z,99177.28
2024-01-20T12:13:17.797Z,99196.13
2024-01-20T12:15:48.198Z,99198.00
2024-01-20T12:18:19.225Z,99195.69
2024-01-20T12:20:46.603Z,99205.97
2024-01-20T12:23:21.927Z,99203.41
2024-01-20T12:25:54.707Z,99208.63
2024-01-20T12:28:23.051Z,99191.09
2024-01-20T12:30:50.925Z,99198.00
2024-01-20T12:33:18.619Z,99202.28
2024-01-20T12:35:46.602Z,99197.06
2024-01-20T12:38:13.839Z,99206.41
2024-01-20T12:40:42.409Z,99220.22
2024-01-20T12:43:10.155Z,99216.06
2024-01-20T12:45:37.522Z,99225.53
2024-01-20T12:48:05.553Z,99200.94
2024-01-20T12:50:33.098Z,99224.66
2024-01-20T12:53:01.055Z,99218.38
2024-01-20T12:55:28.306Z,99227.13
2024-01-20T12:57:55.631Z,99222.34
2024-01-20T13:00:23.013Z,99225.06
2024-01-20T13:02:50.667Z,99227.34
2024-01-20T13:05:18.464Z,99221.84
2024-01-20T13:07:45.725Z,99244.84
2024-01-20T13:10:12.935Z,99249.81
2024-01-20T13:12:40.109Z,99246.84
2024-01-20T13:15:08.315Z,99238.88
2024-01-20T13:17:37.049Z,99230.22
2024-01-20T13:20:05.183Z,99235.41
2024-01-20T13:22:32.410Z,99247.13
2024-01-20T13:25:00.246Z,99252.91
2024-01-20T13:27:27.597Z,99252.81
2024-01-20T13:29:55.119Z,99244.97
2024-01-20T13:32:22.311Z,99252.50
2024-01-20T13:34:49.777Z,99250.72
2024-01-20T13:37:17.010Z,99270.66
2024-01-20T13:39:44.265Z,99270.56
2024-01-20T13:42:12.284Z,99264.19
2024-01-20T13:44:39.662Z,99265.34
2024-01-20T13:47:09.840Z,99279.00
2024-01-20T13:49:37.320Z,99280.94
2024-01-20T13:52:04.791Z,99285.69
2024-01-20T13:54:32.066Z,99265.28
2024-01-20T13:56:59.248Z,99292.63
2024-01-20T13:59:28.000Z,99287.66
2024-01-20T14:01:57.059Z,99286.78
2024-01-20T14:04:24.613Z,99293.69
2024-01-20T14:06:52.825Z,99287.66
2024-01-20T14:09:20.427Z,99284.84
2024-01-20T14:11:47.828Z,99288.91
2024-01-20T14:14:15.817Z,99308.06
2024-01-20T14:16:43.689Z,99308.91
2024-01-20T14:19:11.153Z,99304.66
2024-01-20T14:21:38.645Z,99304.50
2024-01-20T14:24:06.179Z,99298.03
2024-01-20T14:26:33.508Z,99299.03
2024-01-20T14:29:01.052Z,99307.25
2024-01-20T14:31:29.286Z,99313.25
2024-01-20T14:33:57.482Z,99316.53
2024-01-20T14:36:24.890Z,99319.19
2024-01-20T14:38:51.916Z,99314.59
2024-01-20T14:41:19.677Z,99300.59
2024-01-20T14:43:46.803Z,99296.28
2024-01-20T14:46:14.109Z,99293.38
2024-01-20T14:48:41.386Z,99319.03
2024-01-20T14:51:09.278Z,99319.03
2024-01-20T14:53:37.059Z,99322.22
2024-01-20T14:56:04.595Z,99317.25
2024-01-20T14:58:31.807Z,99333.03
2024-01-20T15:00:59.286Z,99342.50
2024-01-20T15:03:26.657Z,99321.53
2024-01-20T15:05:54.410Z,99341.78
2024-01-20T15:08:21.641Z,99342.41
2024-01-20T15:10:49.564Z,99342.59
2024-01-20T15:13:18.076Z,99330.19
2024-01-20T15:15:45.521Z,99359.75
2024-01-20T15:18:14.286Z,99354.63
2024-01-20T15:20:41.884Z,99347.53
2024-01-20T15:23:10.060Z,99344.78
2024-01-20T15:25:38.125Z,99344.16
2024-01-20T15:28:05.416Z,99346.09
2024-01-20T15:30:32.891Z,99361.88
2024-01-20T15:33:00.670Z,99361.06
2024-01-20T15:35:28.013Z,99343.72
2024-01-20T15:37:55.198Z,99363.81
2024-01-20T15:40:22.496Z,99351.75
2024-01-20T15:42:51.047Z,99358.50
2024-01-20T15:45:18.365Z,99376.03
2024-01-20T15:47:45.940Z,99350.00
2024-01-20T15:50:13.088Z,99360.63
2024-01-20T15:52:40.438Z,99376.28
2024-01-20T15:55:10.012Z,99372.81
2024-01-20T15:57:37.615Z,99367.97
2024-01-20T16:00:07.466Z,99384.44
2024-01-20T16:02:38.520Z,99377.72
2024-01-20T16:05:06.633Z,99375.97
2024-01-20T16:07:35.692Z,99392.41
2024-01-20T16:10:03.044Z,99390.38
2024-01-20T16:12:30.995Z,99374.00
2024-01-20T16:14:59.236Z,99401.91
2024-01-20T16:17:26.471Z,99395.78
2024-01-20T16:19:53.808Z,99387.28
2024-01-20T16:22:21.014Z,99395.88
2024-01-20T16:24:48.281Z,99387.91
2024-01-20T16:27:16.717Z,99405.59
2024-01-20T16:29:43.885Z,99393.38
2024-01-20T16:32:13.086Z,99397.47
2024-01-20T16:34:40.596Z,99387.00
2024-01-20T16:37:08.202Z,99401.97
2024-01-20T16:39:35.691Z,99408.13
2024-01-20T16:44:31.268Z,99407.03
2024-01-20T16:46:58.847Z,99403.84
2024-01-20T16:49:26.579Z,99411.38
2024-01-20T16:51:57.262Z,99411.84
2024-01-20T16:54:26.065Z,99425.13
2024-01-20T16:56:53.765Z,99423.88
2024-01-20T16:59:21.162Z,99426.00
2024-01-20T17:01:48.372Z,99421.41
2024-01-20T17:04:15.883Z,99433.34
2024-01-20T17:06:43.162Z,99432.72
2024-01-20T17:09:10.652Z,99422.94
2024-01-20T17:11:37.897Z,99421.94
2024-01-20T17:14:05.387Z,99429.91
2024-01-20T17:16:34.105Z,99434.34
2024-01-20T17:19:04.475Z,99438.94
2024-01-20T17:21:34.846Z,99450.09
2024-01-20T17:24:01.936Z,99445.94
2024-01-20T17:26:30.628Z,99432.59
2024-01-20T17:28:59.658Z,99446.56
2024-01-20T17:31:34.524Z,99448.16
2024-01-20T17:34:02.565Z,99437.53
2024-01-20T17:36:30.103Z,99443.47
2024-01-20T17:38:57.581Z,99432.84
2024-01-20T17:41:25.599Z,99427.50
2024-01-20T17:43:52.711Z,99450.09
2024-01-20T17:46:19.988Z,99445.69
2024-01-20T17:48:47.199Z,99420.88
2024-01-20T17:51:14.944Z,99441.78
2024-01-20T17:53:43.263Z,99443.56
2024-01-20T17:56:10.639Z,99460.22
2024-01-20T17:58:37.977Z,99470.50
2024-01-20T18:01:06.363Z,99469.41
2024-01-20T18:03:34.184Z,99475.56
2024-01-20T18:06:03.074Z,99467.47
2024-01-20T18:08:30.682Z,99477.31
2024-01-20T18:10:57.866Z,99472.78
2024-01-20T18:13:25.064Z,99471.38
2024-01-20T18:15:52.460Z,99440.38
2024-01-20T18:18:20.197Z,99473.31
2024-01-20T18:20:47.477Z,99466.22
2024-01-20T18:23:14.752Z,99465.38
2024-01-20T18:25:41.990Z,99486.06
2024-01-20T18:28:09.299Z,99471.38
2024-01-20T18:30:39.978Z,99475.47
2024-01-20T18:33:08.661Z,99472.09
2024-01-20T18:35:36.055Z,99485.38
2024-01-20T18:38:03.304Z,99471.84
2024-01-20T18:40:30.574Z,99486.06
2024-01-20T18:42:58.952Z,99499.03
2024-01-20T18:45:26.399Z,99504.53
2024-01-20T18:47:53.771Z,99496.34
2024-01-20T18:50:23.268Z,99486.97
2024-01-20T18:52:50.607Z,99500.78
2024-01-20T18:55:17.901Z,99507.09
2024-01-20T18:57:46.699Z,99504.69
2024-01-20T19:00:14.269Z,99506.28
2024-01-20T19:02:41.606Z,99502.03
2024-01-20T19:05:09.328Z,99506.63
2024-01-20T19:07:36.884Z,99491.94
2024-01-20T19:10:05.868Z,99511.00
2024-01-20T19:12:33.123Z,99518.00
2024-01-20T19:15:01.672Z,99502.22
2024-01-20T19:17:32.574Z,99520.63
2024-01-20T19:20:00.805Z,99477.41
2024-01-20T19:22:31.047Z,99506.38
2024-01-20T19:24:58.279Z,99520.56
2024-01-20T19:27:27.537Z,99526.47
2024-01-20T19:29:55.054Z,99527.28
2024-01-20T19:32:23.622Z,99516.03
2024-01-20T19:34:51.278Z,99529.84
2024-01-20T19:37:18.504Z,99534.13
2024-01-20T19:39:46.565Z,99536.84
2024-01-20T19:42:14.432Z,99526.31
2024-01-20T19:44:41.789Z,99528.28
2024-01-20T19:47:09.338Z,99533.47
2024-01-20T19:49:36.714Z,99532.41
2024-01-20T19:52:04.530Z,99522.56
2024-01-20T19:54:32.233Z,99535.41
2024-01-20T19:57:00.997Z,99532.59
2024-01-20T19:59:28.248Z,99547.19
2024-01-20T20:01:55.332Z,99545.16
2024-01-20T20:04:22.874Z,99541.88
2024-01-20T20:06:52.080Z,99556.41
2024-01-20T20:09:20.985Z,99537.91
2024-01-20T20:11:48.460Z,99548.06
2024-01-20T20:14:18.479Z,99554.09
2024-01-20T20:16:46.017Z,99555.50
2024-01-20T20:19:13.773Z,99550.19
2024-01-20T20:21:41.653Z,99561.94
2024-01-20T20:44:17.008Z,99584.41
2024-01-20T20:46:44.269Z,99561.06
2024-01-20T20:49:11.831Z,99578.88
2024-01-20T20:51:39.204Z,99574.56
2024-01-20T20:54:06.867Z,99597.72
2024-01-20T20:56:34.375Z,99592.69
2024-01-20T20:59:05.230Z,99599.09
2024-01-20T21:01:33.026Z,99594.94
2024-01-20T21:04:05.169Z,99601.84
2024-01-20T21:06:36.292Z,99600.25
2024-01-20T21:09:03.629Z,99611.66
2024-01-20T21:11:31.395Z,99614.44
2024-01-20T21:13:58.680Z,99617.69
2024-01-20T21:16:27.171Z,99612.31
2024-01-20T21:18:56.249Z,99619.00
2024-01-20T21:21:23.899Z,99626.81
2024-01-20T21:23:51.218Z,99634.34
2024-01-20T21:26:22.516Z,99626.34
2024-01-20T21:28:50.496Z,99618.44
2024-01-20T21:31:17.915Z,99631.88
2024-01-20T21:33:45.431Z,99643.34
2024-01-20T21:36:13.126Z,99642.13
2024-01-20T21:38:41.379Z,99633.25
2024-01-20T21:41:10.651Z,99630.22
2024-01-20T21:43:38.123Z,99660.31
2024-01-20T21:46:05.425Z,99654.97
2024-01-20T21:48:32.939Z,99651.81
2024-01-20T21:51:00.326Z,99661.13
2024-01-20T21:53:29.192Z,99661.59
2024-01-20T21:55:56.537Z,99677.78
2024-01-20T21:58:24.017Z,99652.94
2024-01-20T22:00:51.492Z,99672.56
2024-01-20T22:03:18.949Z,99669.28
2024-01-20T22:05:46.311Z,99679.75
2024-01-20T22:08:14.239Z,99671.53
2024-01-20T22:10:41.595Z,99667.88
2024-01-20T22:13:09.175Z,99673.22
2024-01-20T22:15:37.424Z,99691.28
2024-01-20T22:18:04.707Z,99691.06
2024-01-20T22:20:33.793Z,99694.19
2024-01-20T22:23:01.088Z,99704.47
2024-01-20T22:25:29.318Z,99682.72
2024-01-20T22:27:57.409Z,99706.38
2024-01-20T22:30:24.816Z,99683.94
2024-01-20T22:32:52.496Z,99695.56
2024-01-20T22:35:19.772Z,99704.38
2024-01-20T22:37:47.492Z,99701.84
2024-01-20T22:40:14.818Z,99715.44
2024-01-20T22:42:42.105Z,99718.16
2024-01-20T22:45:11.218Z,99714.25
2024-01-20T22:47:40.485Z,99729.97
2024-01-20T22:50:08.107Z,99729.66
2024-01-20T22:52:36.202Z,99712.78
2024-01-20T22:55:03.813Z,99706.09
2024-01-20T22:57:31.065Z,99733.69
2024-01-20T22:59:58.216Z,99735.13
2024-01-20T23:02:25.776Z,99754.47
2024-01-20T23:04:55.168Z,99743.25
2024-01-20T23:07:23.425Z,99747.91
2024-01-20T23:09:50.729Z,99764.91
2024-01-20T23:12:20.341Z,99761.78
2024-01-20T23:14:47.918Z,99773.34
2024-01-20T23:17:17.619Z,99770.66
2024-01-20T23:19:45.057Z,99771.72
2024-01-20T23:22:12.213Z,99788.03
2024-01-20T23:24:39.441Z,99782.47
2024-01-20T23:27:06.535Z,99776.13
2024-01-20T23:29:33.796Z,99796.16
2024-01-20T23:32:02.087Z,99798.59
2024-01-20T23:34:29.446Z,99795.00
2024-01-20T23:36:56.649Z,99808.69
2024-01-20T23:39:23.737Z,99805.03
2024-01-20T23:41:50.885Z,99806.09
2024-01-20T23:44:19.208Z,99798.44
2024-01-20T23:46:46.342Z,99803.28
2024-01-20T23:49:13.789Z,99813.22
2024-01-20T23:51:41.023Z,99815.44
2024-01-20T23:54:08.276Z,99818.13
2024-01-20T23:56:35.719Z,99808.31
2024-01-20T23:59:03.558Z,99817.44
